createdAt,value
2022-09-10T00:01:27.406Z,14.60
2022-09-10T00:03:56.924Z,14.40
2022-09-10T00:06:27.828Z,14.50
2022-09-10T00:08:57.747Z,14.50
2022-09-10T00:11:30.134Z,14.40
2022-09-10T00:13:58.441Z,14.40
2022-09-10T00:16:27.616Z,14.40
2022-09-10T00:18:58.226Z,14.40
2022-09-10T00:21:26.264Z,14.40
2022-09-10T00:23:54.440Z,14.40
2022-09-10T00:26:24.612Z,14.40
2022-09-10T00:28:54.332Z,14.40
2022-09-10T00:31:24.301Z,14.40
2022-09-10T00:33:54.787Z,14.40
2022-09-10T00:36:26.026Z,14.40
2022-09-10T00:38:55.837Z,14.40
2022-09-10T00:41:25.867Z,14.40
2022-09-10T00:43:56.832Z,14.40
2022-09-10T00:46:36.495Z,14.40
2022-09-10T00:49:10.400Z,14.50
2022-09-10T00:51:40.391Z,14.40
2022-09-10T00:54:09.296Z,14.40
2022-09-10T00:56:39.072Z,14.40
2022-09-10T00:59:10.822Z,14.40
2022-09-10T01:01:40.409Z,14.40
2022-09-10T01:04:10.350Z,14.30
2022-09-10T01:06:41.704Z,14.30
2022-09-10T01:09:10.682Z,14.30
2022-09-10T01:12:04.998Z,14.40
2022-09-10T01:14:54.502Z,14.30
2022-09-10T01:17:30.130Z,14.30
2022-09-10T01:20:52.481Z,14.30
2022-09-10T01:23:58.439Z,14.30
2022-09-10T01:26:42.028Z,14.30
2022-09-10T01:29:18.947Z,14.20
2022-09-10T01:31:52.125Z,14.30
2022-09-10T01:34:27.637Z,14.20
2022-09-10T01:37:03.084Z,14.20
2022-09-10T01:39:31.691Z,14.30
2022-09-10T01:42:01.307Z,14.20
2022-09-10T01:44:47.104Z,14.30
2022-09-10T01:47:36.037Z,14.30
2022-09-10T01:50:16.604Z,14.30
2022-09-10T01:52:57.453Z,14.20
2022-09-10T01:55:36.451Z,14.20
2022-09-10T01:58:11.922Z,14.20
2022-09-10T02:00:54.332Z,14.20
2022-09-10T02:03:25.865Z,14.20
2022-09-10T02:05:56.060Z,14.10
2022-09-10T02:08:28.624Z,14.10
2022-09-10T02:10:59.691Z,14.10
2022-09-10T02:13:31.835Z,14.10
2022-09-10T02:16:35.513Z,14.10
2022-09-10T02:19:04.977Z,14.20
2022-09-10T02:21:35.016Z,14.10
2022-09-10T02:24:07.698Z,14.10
2022-09-10T02:26:38.130Z,14.10
2022-09-10T02:29:09.360Z,14.10
2022-09-10T02:31:40.923Z,14.10
2022-09-10T02:34:09.203Z,14.20
2022-09-10T02:36:37.636Z,14.10
2022-09-10T02:39:07.935Z,14.20
2022-09-10T02:41:36.710Z,14.20
2022-09-10T02:44:05.405Z,14.20
2022-09-10T02:46:33.672Z,14.20
2022-09-10T02:49:03.044Z,14.20
2022-09-10T02:51:33.170Z,14.20
2022-09-10T02:54:01.399Z,14.20
2022-09-10T02:56:29.427Z,14.30
2022-09-10T02:58:59.084Z,14.30
2022-09-10T03:01:28.455Z,14.20
2022-09-10T03:04:03.322Z,14.30
2022-09-10T03:06:32.697Z,14.20
2022-09-10T03:09:02.118Z,14.30
2022-09-10T03:11:30.266Z,14.30
2022-09-10T03:13:59.707Z,14.30
2022-09-10T03:16:28.996Z,14.20
2022-09-10T03:18:57.096Z,14.30
2022-09-10T03:21:26.670Z,14.30
2022-09-10T03:23:57.226Z,14.30
2022-09-10T03:26:30.394Z,14.30
2022-09-10T03:28:58.674Z,14.30
2022-09-10T03:31:29.364Z,14.30
2022-09-10T03:33:59.684Z,14.30
2022-09-10T03:36:31.542Z,14.30
2022-09-10T03:39:00.479Z,14.30
2022-09-10T03:41:31.961Z,14.20
2022-09-10T03:44:01.676Z,14.30
2022-09-10T03:46:29.738Z,14.30
2022-09-10T03:49:02.285Z,14.20
2022-09-10T03:51:34.044Z,14.30
2022-09-10T03:54:02.468Z,14.40
2022-09-10T03:56:33.006Z,14.30
2022-09-10T03:59:01.327Z,14.40
2022-09-10T04:01:30.009Z,14.50
2022-09-10T04:03:58.634Z,14.40
2022-09-10T04:06:32.204Z,14.40
2022-09-10T04:09:02.301Z,14.40
2022-09-10T04:11:30.668Z,14.40
2022-09-10T04:14:00.106Z,14.40
2022-09-10T04:16:29.205Z,14.40
2022-09-10T04:18:57.367Z,14.40
2022-09-10T04:21:25.530Z,14.40
2022-09-10T04:23:59.449Z,14.40
2022-09-10T04:26:30.295Z,14.40
2022-09-10T04:28:58.388Z,14.40
2022-09-10T04:31:26.952Z,14.40
2022-09-10T04:34:02.049Z,14.40
2022-09-10T04:36:31.494Z,14.30
2022-09-10T04:38:59.841Z,14.40
2022-09-10T04:41:28.285Z,14.40
2022-09-10T04:43:58.410Z,14.40
2022-09-10T04:46:26.814Z,14.30
2022-09-10T04:48:58.046Z,14.30
2022-09-10T04:51:26.273Z,14.30
2022-09-10T04:53:55.715Z,14.40
2022-09-10T04:56:29.021Z,14.30
2022-09-10T04:58:58.363Z,14.40
2022-09-10T05:01:28.892Z,14.40
2022-09-10T05:03:57.061Z,14.40
2022-09-10T05:06:25.454Z,14.30
2022-09-10T05:08:55.542Z,14.40
2022-09-10T05:11:23.726Z,14.40
2022-09-10T05:13:53.317Z,14.40
2022-09-10T05:16:25.425Z,14.40
2022-09-10T05:18:54.348Z,14.40
2022-09-10T05:21:22.558Z,14.30
2022-09-10T05:23:50.941Z,14.40
2022-09-10T05:26:18.982Z,14.40
2022-09-10T05:28:47.610Z,14.40
2022-09-10T05:31:17.477Z,14.40
2022-09-10T05:33:47.985Z,14.40
2022-09-10T05:36:16.137Z,14.40
2022-09-10T05:38:46.639Z,14.40
2022-09-10T05:41:18.435Z,14.50
2022-09-10T05:43:49.943Z,14.40
2022-09-10T05:46:18.900Z,14.50
2022-09-10T05:48:53.932Z,14.50
2022-09-10T05:51:22.280Z,14.50
2022-09-10T05:53:51.533Z,14.50
2022-09-10T05:56:20.520Z,14.60
2022-09-10T05:58:49.580Z,14.80
2022-09-10T06:01:18.832Z,14.70
2022-09-10T06:03:47.340Z,14.70
2022-09-10T06:06:16.816Z,14.80
2022-09-10T06:08:53.402Z,14.90
2022-09-10T06:11:35.922Z,14.90
2022-09-10T06:14:03.972Z,14.90
2022-09-10T06:16:32.670Z,14.90
2022-09-10T06:19:03.330Z,15.10
2022-09-10T06:21:32.732Z,15.10
2022-09-10T06:24:01.223Z,15.20
2022-09-10T06:26:33.230Z,15.20
2022-09-10T06:29:06.319Z,15.20
2022-09-10T06:31:35.640Z,15.20
2022-09-10T06:34:04.555Z,15.20
2022-09-10T06:36:35.113Z,15.20
2022-09-10T06:39:03.487Z,15.30
2022-09-10T06:41:39.036Z,15.30
2022-09-10T06:44:12.700Z,15.40
2022-09-10T06:47:28.232Z,15.40
2022-09-10T06:49:38.982Z,15.50
2022-09-10T06:52:08.420Z,15.60
2022-09-10T06:54:36.500Z,15.60
2022-09-10T06:57:19.507Z,15.70
2022-09-10T06:59:47.674Z,15.70
2022-09-10T07:02:15.716Z,15.80
2022-09-10T07:04:44.430Z,15.90
2022-09-10T07:07:13.770Z,15.80
2022-09-10T07:09:41.814Z,15.70
2022-09-10T07:12:13.178Z,15.70
2022-09-10T07:14:43.017Z,15.60
2022-09-10T07:17:12.678Z,15.60
2022-09-10T07:19:40.776Z,15.50
2022-09-10T07:22:32.953Z,15.60
2022-09-10T07:25:01.275Z,15.60
2022-09-10T07:27:43.383Z,15.70
2022-09-10T07:30:12.829Z,16.00
2022-09-10T07:32:41.360Z,16.20
2022-09-10T07:35:15.339Z,16.40
2022-09-10T07:37:46.230Z,16.60
2022-09-10T07:40:15.817Z,17.00
2022-09-10T07:42:45.702Z,17.40
2022-09-10T07:45:16.730Z,17.70
2022-09-10T07:47:45.630Z,18.00
2022-09-10T07:50:14.796Z,18.10
2022-09-10T07:52:44.464Z,18.00
2022-09-10T07:55:13.910Z,17.90
2022-09-10T07:57:43.805Z,17.70
2022-09-10T08:00:14.936Z,17.50
2022-09-10T08:02:51.881Z,17.40
2022-09-10T08:05:23.442Z,17.40
2022-09-10T08:07:55.198Z,17.50
2022-09-10T08:10:26.729Z,17.50
2022-09-10T08:12:54.790Z,17.90
2022-09-10T08:15:24.388Z,17.80
2022-09-10T08:17:53.357Z,18.10
2022-09-10T08:20:25.193Z,18.20
2022-09-10T08:22:57.243Z,18.20
2022-09-10T08:25:26.123Z,18.40
2022-09-10T08:27:55.436Z,18.40
2022-09-10T08:30:24.193Z,18.50
2022-09-10T08:32:54.697Z,18.50
2022-09-10T08:35:22.825Z,18.50
2022-09-10T08:37:51.136Z,18.40
2022-09-10T08:40:23.649Z,18.30
2022-09-10T08:42:53.197Z,18.30
2022-09-10T08:45:28.200Z,18.10
2022-09-10T08:47:59.880Z,18.00
2022-09-10T08:50:36.657Z,18.00
2022-09-10T08:53:22.858Z,18.00
2022-09-10T08:55:55.142Z,18.30
2022-09-10T08:58:29.651Z,18.60
2022-09-10T09:01:02.614Z,18.90
2022-09-10T09:03:37.608Z,19.10
2022-09-10T09:06:08.880Z,19.10
2022-09-10T09:08:48.285Z,19.20
2022-09-10T09:11:34.284Z,19.30
2022-09-10T09:14:25.345Z,19.40
2022-09-10T09:17:10.124Z,19.40
2022-09-10T09:19:46.000Z,19.40
2022-09-10T09:22:19.401Z,19.30
2022-09-10T09:24:56.513Z,19.10
2022-09-10T09:27:30.976Z,18.80
2022-09-10T09:30:02.808Z,18.50
2022-09-10T09:32:37.562Z,18.20
2022-09-10T09:35:17.706Z,17.90
2022-09-10T09:37:48.439Z,17.90
2022-09-10T09:40:28.093Z,17.80
2022-09-10T09:43:00.188Z,17.70
2022-09-10T09:45:37.201Z,17.60
2022-09-10T09:48:06.788Z,17.50
2022-09-10T09:50:38.726Z,17.40
2022-09-10T09:53:06.774Z,17.40
2022-09-10T09:55:40.526Z,17.40
2022-09-10T09:58:29.400Z,17.20
2022-09-10T10:01:12.956Z,17.20
2022-09-10T10:03:52.175Z,17.20
2022-09-10T10:06:24.603Z,17.20
2022-09-10T10:09:05.157Z,17.20
2022-09-10T10:11:46.540Z,17.40
2022-09-10T10:14:34.965Z,17.50
2022-09-10T10:17:03.420Z,17.60
2022-09-10T10:19:34.818Z,17.70
2022-09-10T10:22:22.664Z,17.90
2022-09-10T10:24:53.934Z,18.10
2022-09-10T10:27:29.916Z,18.10
2022-09-10T10:30:01.739Z,18.10
2022-09-10T10:32:47.054Z,18.20
2022-09-10T10:35:32.654Z,18.20
2022-09-10T10:38:31.853Z,18.20
2022-09-10T10:41:24.405Z,18.30
2022-09-10T10:44:03.573Z,18.40
2022-09-10T10:46:40.469Z,18.50
2022-09-10T10:49:22.774Z,18.60
2022-09-10T10:52:01.599Z,18.50
2022-09-10T10:54:45.837Z,18.40
2022-09-10T10:57:27.317Z,18.30
2022-09-10T11:00:01.035Z,18.20
2022-09-10T11:02:39.328Z,18.00
2022-09-10T11:05:20.070Z,17.90
2022-09-10T11:07:48.549Z,17.70
2022-09-10T11:10:23.355Z,17.50
2022-09-10T11:12:55.739Z,17.40
2022-09-10T11:15:31.029Z,17.50
2022-09-10T11:18:07.006Z,17.60
2022-09-10T11:20:42.376Z,17.70
2022-09-10T11:23:20.478Z,17.80
2022-09-10T11:25:55.714Z,18.00
2022-09-10T11:28:29.201Z,18.30
2022-09-10T11:31:03.176Z,18.60
2022-09-10T11:33:39.932Z,18.90
2022-09-10T11:36:16.744Z,19.10
2022-09-10T11:38:52.893Z,19.20
2022-09-10T11:41:25.872Z,19.30
2022-09-10T11:44:00.755Z,19.30
2022-09-10T11:46:36.616Z,19.20
2022-09-10T11:49:13.338Z,19.40
2022-09-10T11:51:42.497Z,19.50
2022-09-10T11:54:14.319Z,19.50
2022-09-10T11:56:52.827Z,19.60
2022-09-10T11:59:42.289Z,19.60
2022-09-10T12:02:32.623Z,19.80
2022-09-10T12:05:07.834Z,20.20
2022-09-10T12:07:47.153Z,20.40
2022-09-10T12:10:23.890Z,20.40
2022-09-10T12:12:53.259Z,20.40
2022-09-10T12:15:24.627Z,20.40
2022-09-10T12:17:58.758Z,20.30
2022-09-10T12:20:31.289Z,20.30
2022-09-10T12:23:00.219Z,20.30
2022-09-10T12:25:34.253Z,20.20
2022-09-10T12:28:07.769Z,20.30
2022-09-10T12:31:02.822Z,20.30
2022-09-10T12:34:00.776Z,20.50
2022-09-10T12:37:11.687Z,20.50
2022-09-10T12:39:41.275Z,20.30
2022-09-10T12:42:32.460Z,20.30
2022-09-10T12:45:00.710Z,20.40
2022-09-10T12:47:52.748Z,20.10
2022-09-10T12:50:45.968Z,19.90
2022-09-10T12:53:45.157Z,19.70
2022-09-10T12:56:45.597Z,19.70
2022-09-10T12:59:39.633Z,19.70
2022-09-10T13:02:21.364Z,19.80
2022-09-10T13:04:57.172Z,19.90
2022-09-10T13:07:31.537Z,19.90
2022-09-10T13:10:04.004Z,19.90
2022-09-10T13:12:37.497Z,20.00
2022-09-10T13:15:07.092Z,20.00
2022-09-10T13:17:41.231Z,19.80
2022-09-10T13:20:31.913Z,19.90
2022-09-10T13:23:05.861Z,19.90
2022-09-10T13:25:41.401Z,19.90
2022-09-10T13:28:46.960Z,19.80
2022-09-10T13:31:24.222Z,20.00
2022-09-10T13:34:15.310Z,20.20
2022-09-10T13:36:54.674Z,20.40
2022-09-10T13:39:57.235Z,20.30
2022-09-10T13:42:56.012Z,20.10
2022-09-10T13:45:28.317Z,20.00
2022-09-10T13:48:04.567Z,19.90
2022-09-10T13:50:41.543Z,19.80
2022-09-10T13:53:13.577Z,19.80
2022-09-10T13:55:51.583Z,19.80
2022-09-10T13:58:23.139Z,19.90
2022-09-10T14:00:54.162Z,20.00
2022-09-10T14:03:25.846Z,20.00
2022-09-10T14:05:57.604Z,19.90
2022-09-10T14:08:29.301Z,20.00
2022-09-10T14:11:01.245Z,20.00
2022-09-10T14:13:34.459Z,20.00
2022-09-10T14:16:05.641Z,19.90
2022-09-10T14:18:40.769Z,19.70
2022-09-10T14:21:08.913Z,19.60
2022-09-10T14:23:40.178Z,19.50
2022-09-10T14:26:23.185Z,19.30
2022-09-10T14:28:57.111Z,19.20
2022-09-10T14:31:38.157Z,19.10
2022-09-10T14:34:33.790Z,19.10
2022-09-10T14:37:02.999Z,19.10
2022-09-10T14:39:31.071Z,18.70
2022-09-10T14:42:25.168Z,18.50
2022-09-10T14:44:53.256Z,18.30
2022-09-10T14:47:30.243Z,18.00
2022-09-10T14:50:32.030Z,18.00
2022-09-10T14:53:00.197Z,18.00
2022-09-10T14:55:31.195Z,18.10
2022-09-10T14:57:59.863Z,18.10
2022-09-10T15:00:28.417Z,18.10
2022-09-10T15:02:57.251Z,18.00
2022-09-10T15:05:25.649Z,18.10
2022-09-10T15:07:55.008Z,18.00
2022-09-10T15:10:23.049Z,18.00
2022-09-10T15:12:53.099Z,17.80
2022-09-10T15:15:21.250Z,17.60
2022-09-10T15:17:49.314Z,17.50
2022-09-10T15:20:17.946Z,17.50
2022-09-10T15:22:45.966Z,17.30
2022-09-10T15:25:29.717Z,17.20
2022-09-10T15:27:57.833Z,17.30
2022-09-10T15:30:26.327Z,17.30
2022-09-10T15:32:54.678Z,17.30
2022-09-10T15:35:23.257Z,17.30
2022-09-10T15:37:51.973Z,17.30
2022-09-10T15:40:21.555Z,17.20
2022-09-10T15:42:50.185Z,17.30
2022-09-10T15:45:18.200Z,17.30
2022-09-10T15:47:46.253Z,17.40
2022-09-10T15:50:15.776Z,17.30
2022-09-10T15:52:44.790Z,17.30
2022-09-10T15:55:13.540Z,17.40
2022-09-10T15:57:42.898Z,17.50
2022-09-10T16:00:13.854Z,17.50
2022-09-10T16:02:47.041Z,17.50
2022-09-10T16:05:16.351Z,17.60
2022-09-10T16:07:44.779Z,17.60
2022-09-10T16:10:13.222Z,17.70
2022-09-10T16:12:42.670Z,17.80
2022-09-10T16:15:12.218Z,17.70
2022-09-10T16:17:40.794Z,17.60
2022-09-10T16:20:09.764Z,17.50
2022-09-10T16:22:37.871Z,17.50
2022-09-10T16:25:08.389Z,17.50
2022-09-10T16:27:38.622Z,17.50
2022-09-10T16:30:11.946Z,17.40
2022-09-10T16:32:40.059Z,17.40
2022-09-10T16:35:09.058Z,17.40
2022-09-10T16:37:37.357Z,17.40
2022-09-10T16:40:07.122Z,17.30
2022-09-10T16:42:35.184Z,17.30
2022-09-10T16:45:03.202Z,17.20
2022-09-10T16:47:33.593Z,17.20
2022-09-10T16:50:01.568Z,17.20
2022-09-10T16:52:30.837Z,17.10
2022-09-10T16:54:58.830Z,17.10
2022-09-10T16:57:26.899Z,17.00
2022-09-10T16:59:54.878Z,17.00
2022-09-10T17:02:23.018Z,17.00
2022-09-10T17:04:52.446Z,17.00
2022-09-10T17:07:20.438Z,16.90
2022-09-10T17:09:48.408Z,16.90
2022-09-10T17:12:16.409Z,16.90
2022-09-10T17:14:44.820Z,16.80
2022-09-10T17:17:13.863Z,16.80
2022-09-10T17:19:42.887Z,16.80
2022-09-10T17:22:12.361Z,16.80
2022-09-10T17:24:40.457Z,16.70
2022-09-10T17:27:09.061Z,16.70
2022-09-10T17:29:38.530Z,16.70
2022-09-10T17:32:06.561Z,16.70
2022-09-10T17:34:34.742Z,16.70
2022-09-10T17:37:02.838Z,16.70
2022-09-10T17:39:32.625Z,16.70
2022-09-10T17:42:00.750Z,16.60
2022-09-10T17:44:28.857Z,16.60
2022-09-10T17:46:56.876Z,16.70
2022-09-10T17:49:25.415Z,16.60
2022-09-10T17:51:53.637Z,16.60
2022-09-10T17:54:21.703Z,16.60
2022-09-10T17:56:51.079Z,16.60
2022-09-10T17:59:19.274Z,16.60
2022-09-10T18:01:47.569Z,16.60
2022-09-10T18:04:15.813Z,16.70
2022-09-10T18:06:47.877Z,16.70
2022-09-10T18:09:18.444Z,16.60
2022-09-10T18:11:46.508Z,16.60
2022-09-10T18:14:18.515Z,16.60
2022-09-10T18:16:47.114Z,16.70
2022-09-10T18:19:18.097Z,16.60
2022-09-10T18:21:47.700Z,16.60
2022-09-10T18:24:17.868Z,16.60
2022-09-10T18:26:47.571Z,16.60
2022-09-10T18:29:19.021Z,16.60
2022-09-10T18:31:49.279Z,16.50
2022-09-10T18:34:22.994Z,16.50
2022-09-10T18:36:54.540Z,16.50
2022-09-10T18:39:24.116Z,16.40
2022-09-10T18:41:53.086Z,16.40
2022-09-10T18:44:25.391Z,16.40
2022-09-10T18:46:54.162Z,16.30
2022-09-10T18:49:24.451Z,16.40
2022-09-10T18:51:54.047Z,16.40
2022-09-10T18:54:23.132Z,16.40
2022-09-10T18:56:53.316Z,16.40
2022-09-10T18:59:24.302Z,16.30
2022-09-10T19:01:54.399Z,16.30
2022-09-10T19:04:24.201Z,16.30
2022-09-10T19:06:52.473Z,16.40
2022-09-10T19:09:22.833Z,16.30
2022-09-10T19:11:53.101Z,16.30
2022-09-10T19:14:25.984Z,16.30
2022-09-10T19:16:56.241Z,16.30
2022-09-10T19:19:25.926Z,16.30
2022-09-10T19:21:55.743Z,16.30
2022-09-10T19:24:37.910Z,16.30
2022-09-10T19:27:12.407Z,16.20
2022-09-10T19:29:43.007Z,16.30
2022-09-10T19:32:11.251Z,16.20
2022-09-10T19:34:39.520Z,16.20
2022-09-10T19:37:07.528Z,16.20
2022-09-10T19:39:35.528Z,16.10
2022-09-10T19:42:04.228Z,16.10
2022-09-10T19:44:33.487Z,16.10
2022-09-10T19:47:03.973Z,16.00
2022-09-10T19:49:32.247Z,16.10
2022-09-10T19:52:00.246Z,16.00
2022-09-10T19:54:29.736Z,16.10
2022-09-10T19:56:57.790Z,16.00
2022-09-10T19:59:25.938Z,16.10
2022-09-10T20:01:54.126Z,16.00
2022-09-10T20:04:25.513Z,16.10
2022-09-10T20:06:53.514Z,16.00
2022-09-10T20:09:21.584Z,16.00
2022-09-10T20:11:49.605Z,15.90
2022-09-10T20:14:17.589Z,15.90
2022-09-10T20:16:46.593Z,15.90
2022-09-10T20:19:18.320Z,15.90
2022-09-10T20:21:48.025Z,16.00
2022-09-10T20:24:16.729Z,15.90
2022-09-10T20:26:46.285Z,15.90
2022-09-10T20:29:16.478Z,15.90
2022-09-10T20:31:46.187Z,15.90
2022-09-10T20:34:17.805Z,15.90
2022-09-10T20:36:48.180Z,15.90
2022-09-10T20:39:17.874Z,15.90
2022-09-10T20:41:46.725Z,15.90
2022-09-10T20:44:16.797Z,15.90
2022-09-10T20:46:45.818Z,15.90
2022-09-10T20:49:16.197Z,15.90
2022-09-10T20:51:44.693Z,15.90
2022-09-10T20:54:16.370Z,15.90
2022-09-10T20:56:45.120Z,15.90
2022-09-10T20:59:15.386Z,15.90
2022-09-10T21:01:46.266Z,15.80
2022-09-10T21:04:14.907Z,15.80
2022-09-10T21:06:42.946Z,15.90
2022-09-10T21:09:10.957Z,15.90
2022-09-10T21:11:40.683Z,15.80
2022-09-10T21:14:09.144Z,15.80
2022-09-10T21:16:39.402Z,15.70
2022-09-10T21:19:10.006Z,15.70
2022-09-10T21:21:40.299Z,15.80
2022-09-10T21:24:09.821Z,15.80
2022-09-10T21:26:40.669Z,15.80
2022-09-10T21:29:11.076Z,15.80
2022-09-10T21:31:39.629Z,15.80
2022-09-10T21:34:08.293Z,15.90
2022-09-10T21:36:37.968Z,15.80
2022-09-10T21:39:09.701Z,15.80
2022-09-10T21:41:40.702Z,15.80
2022-09-10T21:44:14.160Z,15.70
2022-09-10T21:46:42.934Z,15.70
2022-09-10T21:49:11.730Z,15.70
2022-09-10T21:51:41.086Z,15.70
2022-09-10T21:54:13.966Z,15.70
2022-09-10T21:56:43.398Z,15.80
2022-09-10T21:59:12.842Z,15.50
2022-09-10T22:01:43.214Z,15.60
2022-09-10T22:04:12.234Z,15.60
2022-09-10T22:06:40.579Z,15.60
2022-09-10T22:09:10.613Z,15.60
2022-09-10T22:11:41.719Z,15.60
2022-09-10T22:14:14.841Z,15.60
2022-09-10T22:16:43.326Z,15.70
2022-09-10T22:19:14.071Z,15.70
2022-09-10T22:21:42.522Z,15.60
2022-09-10T22:24:12.337Z,15.60
2022-09-10T22:26:43.180Z,15.60
2022-09-10T22:29:13.598Z,15.60
2022-09-10T22:31:41.655Z,15.60
2022-09-10T22:34:13.324Z,15.50
2022-09-10T22:36:42.983Z,15.60
2022-09-10T22:39:13.902Z,15.50
2022-09-10T22:41:42.803Z,15.50
2022-09-10T22:44:12.870Z,15.60
2022-09-10T22:46:41.788Z,15.50
2022-09-10T22:49:10.353Z,15.50
2022-09-10T22:51:40.860Z,15.50
2022-09-10T22:54:10.557Z,15.50
2022-09-10T22:56:39.478Z,15.50
2022-09-10T22:59:12.039Z,15.40
2022-09-10T23:01:43.253Z,15.40
2022-09-10T23:04:12.313Z,15.40
2022-09-10T23:06:40.734Z,15.40
2022-09-10T23:09:11.549Z,15.40
2022-09-10T23:11:40.894Z,15.40
2022-09-10T23:14:12.931Z,15.40
2022-09-10T23:16:44.149Z,15.40
2022-09-10T23:19:13.941Z,15.30
2022-09-10T23:21:44.123Z,15.30
2022-09-10T23:24:14.087Z,15.30
2022-09-10T23:26:42.750Z,15.30
2022-09-10T23:29:11.749Z,15.30
2022-09-10T23:31:41.804Z,15.30
2022-09-10T23:34:12.416Z,15.30
2022-09-10T23:36:42.548Z,15.20
2022-09-10T23:39:13.939Z,15.30
2022-09-10T23:41:42.453Z,15.30
2022-09-10T23:44:10.629Z,15.30
2022-09-10T23:46:38.826Z,15.30
2022-09-10T23:49:08.912Z,15.20
2022-09-10T23:51:37.593Z,15.20
2022-09-10T23:54:05.984Z,15.20
2022-09-10T23:56:34.362Z,15.20
2022-09-10T23:59:03.422Z,15.20
